sensor_id;sensor_type;location;lat;lon;timestamp;temperature;humidity
57652;DHT22;43480;53.116;6.734;2023-04-19T00:00:04;8.50;99.90
57652;DHT22;43480;53.116;6.734;2023-04-19T00:02:33;8.50;99.90
57652;DHT22;43480;53.116;6.734;2023-04-19T00:04:59;8.40;99.90
57652;DHT22;43480;53.116;6.734;2023-04-19T00:07:25;8.50;99.90
57652;DHT22;43480;53.116;6.734;2023-04-19T00:09:51;8.50;99.90
57652;DHT22;43480;53.116;6.734;2023-04-19T00:12:17;8.50;99.90
57652;DHT22;43480;53.116;6.734;2023-04-19T00:14:43;8.50;99.90
57652;DHT22;43480;53.116;6.734;2023-04-19T00:17:09;8.40;99.90
57652;DHT22;43480;53.116;6.734;2023-04-19T00:19:36;8.40;99.90
57652;DHT22;43480;53.116;6.734;2023-04-19T00:22:02;8.30;99.90
57652;DHT22;43480;53.116;6.734;2023-04-19T00:24:27;8.40;99.90
57652;DHT22;43480;53.116;6.734;2023-04-19T00:26:53;8.40;99.90
57652;DHT22;43480;53.116;6.734;2023-04-19T00:29:19;8.30;99.90
57652;DHT22;43480;53.116;6.734;2023-04-19T00:31:44;8.30;99.90
57652;DHT22;43480;53.116;6.734;2023-04-19T00:34:10;8.30;99.90
57652;DHT22;43480;53.116;6.734;2023-04-19T00:36:35;8.30;99.90
57652;DHT22;43480;53.116;6.734;2023-04-19T00:39:02;8.30;99.90
57652;DHT22;43480;53.116;6.734;2023-04-19T00:41:27;8.30;99.90
57652;DHT22;43480;53.116;6.734;2023-04-19T00:43:53;8.30;99.90
57652;DHT22;43480;53.116;6.734;2023-04-19T00:46:19;8.20;99.90
57652;DHT22;43480;53.116;6.734;2023-04-19T00:48:45;8.20;99.90
57652;DHT22;43480;53.116;6.734;2023-04-19T00:51:11;8.30;99.90
57652;DHT22;43480;53.116;6.734;2023-04-19T00:53:37;8.20;99.90
57652;DHT22;43480;53.116;6.734;2023-04-19T00:56:05;8.30;99.90
57652;DHT22;43480;53.116;6.734;2023-04-19T00:58:31;8.20;99.90
57652;DHT22;43480;53.116;6.734;2023-04-19T01:00:57;8.20;99.90
57652;DHT22;43480;53.116;6.734;2023-04-19T01:03:24;8.10;99.90
57652;DHT22;43480;53.116;6.734;2023-04-19T01:05:52;8.00;99.90
57652;DHT22;43480;53.116;6.734;2023-04-19T01:08:17;8.00;99.90
57652;DHT22;43480;53.116;6.734;2023-04-19T01:10:43;7.90;99.90
57652;DHT22;43480;53.116;6.734;2023-04-19T01:13:09;7.90;99.90
57652;DHT22;43480;53.116;6.734;2023-04-19T01:15:35;7.90;99.90
57652;DHT22;43480;53.116;6.734;2023-04-19T01:18:01;7.80;99.90
57652;DHT22;43480;53.116;6.734;2023-04-19T01:20:27;7.80;99.90
57652;DHT22;43480;53.116;6.734;2023-04-19T01:22:52;7.80;99.90
57652;DHT22;43480;53.116;6.734;2023-04-19T01:25:18;7.80;99.90
57652;DHT22;43480;53.116;6.734;2023-04-19T01:27:44;7.70;99.90
57652;DHT22;43480;53.116;6.734;2023-04-19T01:30:10;7.60;99.90
57652;DHT22;43480;53.116;6.734;2023-04-19T01:32:35;7.60;99.90
57652;DHT22;43480;53.116;6.734;2023-04-19T01:35:01;7.60;99.90
57652;DHT22;43480;53.116;6.734;2023-04-19T01:37:27;7.60;99.90
57652;DHT22;43480;53.116;6.734;2023-04-19T01:39:52;7.50;99.90
57652;DHT22;43480;53.116;6.734;2023-04-19T01:42:18;7.50;99.90
57652;DHT22;43480;53.116;6.734;2023-04-19T01:44:43;7.50;99.90
57652;DHT22;43480;53.116;6.734;2023-04-19T01:47:09;7.50;99.90
57652;DHT22;43480;53.116;6.734;2023-04-19T01:49:35;7.50;99.90
57652;DHT22;43480;53.116;6.734;2023-04-19T01:52:00;7.50;99.90
57652;DHT22;43480;53.116;6.734;2023-04-19T01:54:26;7.50;99.90
57652;DHT22;43480;53.116;6.734;2023-04-19T01:56:52;7.50;99.90
57652;DHT22;43480;53.116;6.734;2023-04-19T01:59:18;7.40;99.90
57652;DHT22;43480;53.116;6.734;2023-04-19T02:01:43;7.40;99.90
57652;DHT22;43480;53.116;6.734;2023-04-19T02:04:09;7.50;99.90
57652;DHT22;43480;53.116;6.734;2023-04-19T02:06:34;7.40;99.90
57652;DHT22;43480;53.116;6.734;2023-04-19T02:09:00;7.40;99.90
57652;DHT22;43480;53.116;6.734;2023-04-19T02:11:26;7.30;99.90
57652;DHT22;43480;53.116;6.734;2023-04-19T02:13:51;7.30;99.90
57652;DHT22;43480;53.116;6.734;2023-04-19T02:16:17;7.30;99.90
57652;DHT22;43480;53.116;6.734;2023-04-19T02:18:43;7.30;99.90
57652;DHT22;43480;53.116;6.734;2023-04-19T02:21:10;7.30;99.90
57652;DHT22;43480;53.116;6.734;2023-04-19T02:23:35;7.30;99.90
57652;DHT22;43480;53.116;6.734;2023-04-19T02:26:01;7.30;99.90
57652;DHT22;43480;53.116;6.734;2023-04-19T02:28:31;7.30;99.90
57652;DHT22;43480;53.116;6.734;2023-04-19T02:30:57;7.30;99.90
57652;DHT22;43480;53.116;6.734;2023-04-19T02:33:24;7.20;99.90
57652;DHT22;43480;53.116;6.734;2023-04-19T02:35:51;7.20;99.90
57652;DHT22;43480;53.116;6.734;2023-04-19T02:38:16;7.20;99.90
57652;DHT22;43480;53.116;6.734;2023-04-19T02:40:42;7.20;99.90
57652;DHT22;43480;53.116;6.734;2023-04-19T02:43:08;7.20;99.90
57652;DHT22;43480;53.116;6.734;2023-04-19T02:45:33;7.20;99.90
57652;DHT22;43480;53.116;6.734;2023-04-19T02:47:59;7.20;99.90
57652;DHT22;43480;53.116;6.734;2023-04-19T02:50:25;7.20;99.90
57652;DHT22;43480;53.116;6.734;2023-04-19T02:52:51;7.10;99.90
57652;DHT22;43480;53.116;6.734;2023-04-19T02:55:17;7.10;99.90
57652;DHT22;43480;53.116;6.734;2023-04-19T02:57:43;7.10;99.90
57652;DHT22;43480;53.116;6.734;2023-04-19T03:00:09;7.00;99.90
57652;DHT22;43480;53.116;6.734;2023-04-19T03:02:35;6.90;99.90
57652;DHT22;43480;53.116;6.734;2023-04-19T03:05:01;6.90;99.90
57652;DHT22;43480;53.116;6.734;2023-04-19T03:07:29;6.90;99.90
57652;DHT22;43480;53.116;6.734;2023-04-19T03:09:54;6.90;99.90
57652;DHT22;43480;53.116;6.734;2023-04-19T03:12:20;6.80;99.90
57652;DHT22;43480;53.116;6.734;2023-04-19T03:14:45;6.80;99.90
57652;DHT22;43480;53.116;6.734;2023-04-19T03:17:11;6.80;99.90
57652;DHT22;43480;53.116;6.734;2023-04-19T03:19:37;6.70;99.90
57652;DHT22;43480;53.116;6.734;2023-04-19T03:22:02;6.60;99.90
57652;DHT22;43480;53.116;6.734;2023-04-19T03:24:29;6.60;99.90
57652;DHT22;43480;53.116;6.734;2023-04-19T03:26:55;6.60;99.90
57652;DHT22;43480;53.116;6.734;2023-04-19T03:29:21;6.50;99.90
57652;DHT22;43480;53.116;6.734;2023-04-19T03:31:47;6.50;99.90
57652;DHT22;43480;53.116;6.734;2023-04-19T03:34:13;6.50;99.90
57652;DHT22;43480;53.116;6.734;2023-04-19T03:36:39;6.50;99.90
57652;DHT22;43480;53.116;6.734;2023-04-19T03:39:05;6.50;99.90
57652;DHT22;43480;53.116;6.734;2023-04-19T03:41:31;6.50;99.90
57652;DHT22;43480;53.116;6.734;2023-04-19T03:43:57;6.50;99.90
57652;DHT22;43480;53.116;6.734;2023-04-19T03:46:23;6.50;99.90
57652;DHT22;43480;53.116;6.734;2023-04-19T03:48:49;6.40;99.90
57652;DHT22;43480;53.116;6.734;2023-04-19T03:51:15;6.40;99.90
57652;DHT22;43480;53.116;6.734;2023-04-19T03:53:41;6.30;99.90
57652;DHT22;43480;53.116;6.734;2023-04-19T03:56:07;6.20;99.90
57652;DHT22;43480;53.116;6.734;2023-04-19T03:58:33;6.20;99.90
57652;DHT22;43480;53.116;6.734;2023-04-19T04:00:59;6.10;99.90
57652;DHT22;43480;53.116;6.734;2023-04-19T04:03:25;6.00;99.90
57652;DHT22;43480;53.116;6.734;2023-04-19T04:05:51;5.90;99.90
57652;DHT22;43480;53.116;6.734;2023-04-19T04:08:17;5.80;99.90
57652;DHT22;43480;53.116;6.734;2023-04-19T04:10:42;5.80;99.90
57652;DHT22;43480;53.116;6.734;2023-04-19T04:13:08;5.80;99.90
57652;DHT22;43480;53.116;6.734;2023-04-19T04:15:34;5.80;99.90
57652;DHT22;43480;53.116;6.734;2023-04-19T04:18:00;5.70;99.90
57652;DHT22;43480;53.116;6.734;2023-04-19T04:20:25;5.70;99.90
57652;DHT22;43480;53.116;6.734;2023-04-19T04:22:51;5.70;99.90
57652;DHT22;43480;53.116;6.734;2023-04-19T04:25:17;5.60;99.90
57652;DHT22;43480;53.116;6.734;2023-04-19T04:27:43;5.60;99.90
57652;DHT22;43480;53.116;6.734;2023-04-19T04:30:09;5.60;99.90
57652;DHT22;43480;53.116;6.734;2023-04-19T04:32:36;5.60;99.90
57652;DHT22;43480;53.116;6.734;2023-04-19T04:35:03;5.60;99.90
57652;DHT22;43480;53.116;6.734;2023-04-19T04:37:33;5.60;99.90
57652;DHT22;43480;53.116;6.734;2023-04-19T04:40:00;5.60;99.90
57652;DHT22;43480;53.116;6.734;2023-04-19T04:42:26;5.60;99.90
57652;DHT22;43480;53.116;6.734;2023-04-19T04:44:52;5.60;99.90
57652;DHT22;43480;53.116;6.734;2023-04-19T04:47:22;5.60;99.90
57652;DHT22;43480;53.116;6.734;2023-04-19T04:49:48;5.60;99.90
57652;DHT22;43480;53.116;6.734;2023-04-19T04:52:14;5.60;99.90
57652;DHT22;43480;53.116;6.734;2023-04-19T04:54:40;5.60;99.90
57652;DHT22;43480;53.116;6.734;2023-04-19T04:57:05;5.60;99.90
57652;DHT22;43480;53.116;6.734;2023-04-19T04:59:31;5.70;99.90
57652;DHT22;43480;53.116;6.734;2023-04-19T05:01:57;5.70;99.90
57652;DHT22;43480;53.116;6.734;2023-04-19T05:04:23;5.70;99.90
57652;DHT22;43480;53.116;6.734;2023-04-19T05:06:48;5.80;99.90
57652;DHT22;43480;53.116;6.734;2023-04-19T05:09:14;5.80;99.90
57652;DHT22;43480;53.116;6.734;2023-04-19T05:11:40;5.80;99.90
57652;DHT22;43480;53.116;6.734;2023-04-19T05:14:05;5.90;99.90
57652;DHT22;43480;53.116;6.734;2023-04-19T05:16:32;5.90;99.90
57652;DHT22;43480;53.116;6.734;2023-04-19T05:18:57;5.90;99.90
57652;DHT22;43480;53.116;6.734;2023-04-19T05:21:23;6.00;99.90
57652;DHT22;43480;53.116;6.734;2023-04-19T05:23:48;6.00;99.90
57652;DHT22;43480;53.116;6.734;2023-04-19T05:26:14;6.10;99.90
57652;DHT22;43480;53.116;6.734;2023-04-19T05:28:40;6.10;99.90
57652;DHT22;43480;53.116;6.734;2023-04-19T05:31:07;6.20;99.90
57652;DHT22;43480;53.116;6.734;2023-04-19T05:33:33;6.30;99.90
57652;DHT22;43480;53.116;6.734;2023-04-19T05:35:59;6.30;99.90
57652;DHT22;43480;53.116;6.734;2023-04-19T05:38:24;6.30;99.90
57652;DHT22;43480;53.116;6.734;2023-04-19T05:40:50;6.30;99.90
57652;DHT22;43480;53.116;6.734;2023-04-19T05:43:15;6.40;99.90
57652;DHT22;43480;53.116;6.734;2023-04-19T05:45:41;6.40;99.90
57652;DHT22;43480;53.116;6.734;2023-04-19T05:48:07;6.40;99.90
57652;DHT22;43480;53.116;6.734;2023-04-19T05:50:34;6.50;99.90
57652;DHT22;43480;53.116;6.734;2023-04-19T05:53:00;6.50;99.90
57652;DHT22;43480;53.116;6.734;2023-04-19T05:55:26;6.60;99.90
57652;DHT22;43480;53.116;6.734;2023-04-19T05:57:52;6.60;99.90
57652;DHT22;43480;53.116;6.734;2023-04-19T06:00:17;6.70;99.90
57652;DHT22;43480;53.116;6.734;2023-04-19T06:02:43;6.80;99.90
57652;DHT22;43480;53.116;6.734;2023-04-19T06:05:09;6.90;99.90
57652;DHT22;43480;53.116;6.734;2023-04-19T06:07:35;6.90;99.90
57652;DHT22;43480;53.116;6.734;2023-04-19T06:10:00;6.90;99.90
57652;DHT22;43480;53.116;6.734;2023-04-19T06:12:26;6.90;99.90
57652;DHT22;43480;53.116;6.734;2023-04-19T06:14:52;7.00;99.90
57652;DHT22;43480;53.116;6.734;2023-04-19T06:17:17;7.00;99.90
57652;DHT22;43480;53.116;6.734;2023-04-19T06:19:49;7.10;99.90
57652;DHT22;43480;53.116;6.734;2023-04-19T06:22:14;7.20;99.90
57652;DHT22;43480;53.116;6.734;2023-04-19T06:24:40;7.20;99.90
57652;DHT22;43480;53.116;6.734;2023-04-19T06:27:06;7.20;99.90
57652;DHT22;43480;53.116;6.734;2023-04-19T06:29:31;7.30;99.90
57652;DHT22;43480;53.116;6.734;2023-04-19T06:31:57;7.30;99.90
57652;DHT22;43480;53.116;6.734;2023-04-19T06:34:22;7.40;99.90
57652;DHT22;43480;53.116;6.734;2023-04-19T06:36:48;7.50;99.90
57652;DHT22;43480;53.116;6.734;2023-04-19T06:39:14;7.50;99.90
57652;DHT22;43480;53.116;6.734;2023-04-19T06:41:39;7.60;99.90
57652;DHT22;43480;53.116;6.734;2023-04-19T06:44:05;7.70;99.90
57652;DHT22;43480;53.116;6.734;2023-04-19T06:46:31;7.80;99.90
57652;DHT22;43480;53.116;6.734;2023-04-19T06:48:57;7.80;99.90
57652;DHT22;43480;53.116;6.734;2023-04-19T06:51:22;7.90;99.90
57652;DHT22;43480;53.116;6.734;2023-04-19T06:53:49;8.00;99.90
57652;DHT22;43480;53.116;6.734;2023-04-19T06:56:15;8.10;99.90
57652;DHT22;43480;53.116;6.734;2023-04-19T06:58:41;8.20;99.90
57652;DHT22;43480;53.116;6.734;2023-04-19T07:01:06;8.30;99.90
57652;DHT22;43480;53.116;6.734;2023-04-19T07:03:32;8.30;99.90
57652;DHT22;43480;53.116;6.734;2023-04-19T07:05:58;8.40;99.90
57652;DHT22;43480;53.116;6.734;2023-04-19T07:08:24;8.50;99.90
57652;DHT22;43480;53.116;6.734;2023-04-19T07:10:50;8.60;99.90
57652;DHT22;43480;53.116;6.734;2023-04-19T07:13:15;8.70;99.90
57652;DHT22;43480;53.116;6.734;2023-04-19T07:15:41;8.70;99.90
57652;DHT22;43480;53.116;6.734;2023-04-19T07:18:07;8.80;99.90
57652;DHT22;43480;53.116;6.734;2023-04-19T07:20:34;8.80;99.90
57652;DHT22;43480;53.116;6.734;2023-04-19T07:23:00;8.90;99.90
57652;DHT22;43480;53.116;6.734;2023-04-19T07:25:26;9.00;99.90
57652;DHT22;43480;53.116;6.734;2023-04-19T07:27:54;9.10;99.90
57652;DHT22;43480;53.116;6.734;2023-04-19T07:30:21;9.10;99.90
57652;DHT22;43480;53.116;6.734;2023-04-19T07:32:47;9.20;99.90
57652;DHT22;43480;53.116;6.734;2023-04-19T07:35:12;9.30;99.90
57652;DHT22;43480;53.116;6.734;2023-04-19T07:37:38;9.30;99.90
57652;DHT22;43480;53.116;6.734;2023-04-19T07:40:04;9.40;99.90
57652;DHT22;43480;53.116;6.734;2023-04-19T07:42:30;9.50;99.90
57652;DHT22;43480;53.116;6.734;2023-04-19T07:44:56;9.60;99.90
57652;DHT22;43480;53.116;6.734;2023-04-19T07:47:21;9.60;99.90
57652;DHT22;43480;53.116;6.734;2023-04-19T07:49:51;9.70;99.90
57652;DHT22;43480;53.116;6.734;2023-04-19T07:52:16;9.70;99.90
57652;DHT22;43480;53.116;6.734;2023-04-19T07:54:43;9.80;99.90
57652;DHT22;43480;53.116;6.734;2023-04-19T07:57:08;9.90;99.90
57652;DHT22;43480;53.116;6.734;2023-04-19T07:59:34;10.00;99.90
57652;DHT22;43480;53.116;6.734;2023-04-19T08:02:00;10.10;99.90
57652;DHT22;43480;53.116;6.734;2023-04-19T08:04:25;10.20;99.90
57652;DHT22;43480;53.116;6.734;2023-04-19T08:06:51;10.30;99.90
57652;DHT22;43480;53.116;6.734;2023-04-19T08:09:17;10.40;99.90
57652;DHT22;43480;53.116;6.734;2023-04-19T08:11:43;10.50;99.90
57652;DHT22;43480;53.116;6.734;2023-04-19T08:14:09;10.50;99.90
57652;DHT22;43480;53.116;6.734;2023-04-19T08:16:35;10.60;99.90
57652;DHT22;43480;53.116;6.734;2023-04-19T08:19:00;10.70;99.90
57652;DHT22;43480;53.116;6.734;2023-04-19T08:21:26;10.80;99.90
57652;DHT22;43480;53.116;6.734;2023-04-19T08:23:51;10.80;99.90
57652;DHT22;43480;53.116;6.734;2023-04-19T08:26:17;10.90;99.90
57652;DHT22;43480;53.116;6.734;2023-04-19T08:28:43;11.10;99.90
57652;DHT22;43480;53.116;6.734;2023-04-19T08:31:09;11.20;99.90
57652;DHT22;43480;53.116;6.734;2023-04-19T08:33:35;11.20;99.90
57652;DHT22;43480;53.116;6.734;2023-04-19T08:36:00;11.30;99.90
57652;DHT22;43480;53.116;6.734;2023-04-19T08:38:26;11.40;99.90
57652;DHT22;43480;53.116;6.734;2023-04-19T08:40:53;11.50;99.90
57652;DHT22;43480;53.116;6.734;2023-04-19T08:43:24;11.60;99.90
57652;DHT22;43480;53.116;6.734;2023-04-19T08:45:50;11.70;99.90
57652;DHT22;43480;53.116;6.734;2023-04-19T08:48:17;11.70;99.90
57652;DHT22;43480;53.116;6.734;2023-04-19T08:50:43;11.80;99.90
57652;DHT22;43480;53.116;6.734;2023-04-19T08:53:11;11.80;99.90
57652;DHT22;43480;53.116;6.734;2023-04-19T08:55:37;11.90;99.90
57652;DHT22;43480;53.116;6.734;2023-04-19T08:58:05;12.00;91.90
57652;DHT22;43480;53.116;6.734;2023-04-19T09:00:37;12.00;91.90
57652;DHT22;43480;53.116;6.734;2023-04-19T09:03:06;12.00;96.10
57652;DHT22;43480;53.116;6.734;2023-04-19T09:05:32;12.10;92.40
57652;DHT22;43480;53.116;6.734;2023-04-19T09:08:20;12.10;91.20
57652;DHT22;43480;53.116;6.734;2023-04-19T09:11:00;12.20;82.80
57652;DHT22;43480;53.116;6.734;2023-04-19T09:13:28;12.20;82.70
57652;DHT22;43480;53.116;6.734;2023-04-19T09:15:54;12.30;86.50
57652;DHT22;43480;53.116;6.734;2023-04-19T09:18:22;12.40;91.40
57652;DHT22;43480;53.116;6.734;2023-04-19T09:20:49;12.50;84.20
57652;DHT22;43480;53.116;6.734;2023-04-19T09:23:22;12.60;77.40
57652;DHT22;43480;53.116;6.734;2023-04-19T09:26:00;12.70;75.70
57652;DHT22;43480;53.116;6.734;2023-04-19T09:28:27;12.70;75.00
57652;DHT22;43480;53.116;6.734;2023-04-19T09:30:54;12.80;75.10
57652;DHT22;43480;53.116;6.734;2023-04-19T09:33:37;12.90;74.60
57652;DHT22;43480;53.116;6.734;2023-04-19T09:36:06;13.00;73.90
57652;DHT22;43480;53.116;6.734;2023-04-19T09:38:48;13.10;75.50
57652;DHT22;43480;53.116;6.734;2023-04-19T09:41:15;13.20;74.70
57652;DHT22;43480;53.116;6.734;2023-04-19T09:43:42;13.40;77.30
57652;DHT22;43480;53.116;6.734;2023-04-19T09:46:07;13.50;76.40
57652;DHT22;43480;53.116;6.734;2023-04-19T09:48:33;13.50;74.80
57652;DHT22;43480;53.116;6.734;2023-04-19T09:51:01;13.50;74.90
57652;DHT22;43480;53.116;6.734;2023-04-19T09:53:28;13.60;74.00
57652;DHT22;43480;53.116;6.734;2023-04-19T09:55:55;13.60;71.30
57652;DHT22;43480;53.116;6.734;2023-04-19T09:58:21;13.70;72.50
57652;DHT22;43480;53.116;6.734;2023-04-19T10:00:47;13.80;71.90
57652;DHT22;43480;53.116;6.734;2023-04-19T10:03:14;13.90;73.00
57652;DHT22;43480;53.116;6.734;2023-04-19T10:05:41;14.00;72.20
57652;DHT22;43480;53.116;6.734;2023-04-19T10:08:08;14.00;69.80
57652;DHT22;43480;53.116;6.734;2023-04-19T10:10:34;14.10;70.40
57652;DHT22;43480;53.116;6.734;2023-04-19T10:13:15;14.20;69.90
57652;DHT22;43480;53.116;6.734;2023-04-19T10:15:43;14.20;69.80
57652;DHT22;43480;53.116;6.734;2023-04-19T10:18:09;14.20;69.10
57652;DHT22;43480;53.116;6.734;2023-04-19T10:20:40;14.30;70.00
57652;DHT22;43480;53.116;6.734;2023-04-19T10:23:10;14.40;68.80
57652;DHT22;43480;53.116;6.734;2023-04-19T10:25:36;14.40;68.40
57652;DHT22;43480;53.116;6.734;2023-04-19T10:28:03;14.50;68.90
57652;DHT22;43480;53.116;6.734;2023-04-19T10:30:28;14.60;68.00
57652;DHT22;43480;53.116;6.734;2023-04-19T10:32:59;14.70;67.40
57652;DHT22;43480;53.116;6.734;2023-04-19T10:35:35;14.70;67.00
57652;DHT22;43480;53.116;6.734;2023-04-19T10:38:10;14.90;67.30
57652;DHT22;43480;53.116;6.734;2023-04-19T10:43:33;14.90;65.60
57652;DHT22;43480;53.116;6.734;2023-04-19T10:48:50;14.90;64.90
57652;DHT22;43480;53.116;6.734;2023-04-19T10:51:26;14.90;66.10
57652;DHT22;43480;53.116;6.734;2023-04-19T10:53:55;15.00;65.50
57652;DHT22;43480;53.116;6.734;2023-04-19T11:01:45;15.30;66.20
57652;DHT22;43480;53.116;6.734;2023-04-19T11:04:12;15.40;64.80
57652;DHT22;43480;53.116;6.734;2023-04-19T11:09:35;15.50;64.60
57652;DHT22;43480;53.116;6.734;2023-04-19T11:14:34;15.60;64.40
57652;DHT22;43480;53.116;6.734;2023-04-19T11:17:13;15.60;63.30
57652;DHT22;43480;53.116;6.734;2023-04-19T11:19:42;15.50;63.20
57652;DHT22;43480;53.116;6.734;2023-04-19T11:22:08;15.50;63.00
57652;DHT22;43480;53.116;6.734;2023-04-19T11:24:34;15.50;63.40
57652;DHT22;43480;53.116;6.734;2023-04-19T11:26:59;15.60;64.20
57652;DHT22;43480;53.116;6.734;2023-04-19T11:29:25;15.80;66.00
57652;DHT22;43480;53.116;6.734;2023-04-19T11:31:51;15.90;65.00
57652;DHT22;43480;53.116;6.734;2023-04-19T11:34:21;16.10;65.40
57652;DHT22;43480;53.116;6.734;2023-04-19T11:36:49;16.20;65.20
57652;DHT22;43480;53.116;6.734;2023-04-19T11:39:14;16.20;64.50
57652;DHT22;43480;53.116;6.734;2023-04-19T11:41:40;16.20;64.50
57652;DHT22;43480;53.116;6.734;2023-04-19T11:44:13;16.30;64.50
57652;DHT22;43480;53.116;6.734;2023-04-19T11:46:39;16.40;64.80
57652;DHT22;43480;53.116;6.734;2023-04-19T11:49:05;16.50;64.30
57652;DHT22;43480;53.116;6.734;2023-04-19T11:51:31;16.60;63.40
57652;DHT22;43480;53.116;6.734;2023-04-19T11:53:57;16.70;63.70
57652;DHT22;43480;53.116;6.734;2023-04-19T11:56:22;16.70;63.10
57652;DHT22;43480;53.116;6.734;2023-04-19T11:58:48;16.90;63.80
57652;DHT22;43480;53.116;6.734;2023-04-19T12:01:20;17.00;63.80
57652;DHT22;43480;53.116;6.734;2023-04-19T12:03:53;17.30;63.30
57652;DHT22;43480;53.116;6.734;2023-04-19T12:06:28;17.50;62.00
57652;DHT22;43480;53.116;6.734;2023-04-19T12:08:55;17.50;61.60
57652;DHT22;43480;53.116;6.734;2023-04-19T12:11:23;17.50;62.40
57652;DHT22;43480;53.116;6.734;2023-04-19T12:16:33;18.00;61.40
57652;DHT22;43480;53.116;6.734;2023-04-19T12:19:10;17.90;60.90
57652;DHT22;43480;53.116;6.734;2023-04-19T12:21:38;18.00;60.50
57652;DHT22;43480;53.116;6.734;2023-04-19T12:24:04;17.90;60.80
57652;DHT22;43480;53.116;6.734;2023-04-19T12:26:30;17.80;60.80
57652;DHT22;43480;53.116;6.734;2023-04-19T12:28:57;17.80;60.40
57652;DHT22;43480;53.116;6.734;2023-04-19T12:31:23;17.80;60.60
57652;DHT22;43480;53.116;6.734;2023-04-19T12:33:49;17.90;60.50
57652;DHT22;43480;53.116;6.734;2023-04-19T12:36:15;17.90;60.50
57652;DHT22;43480;53.116;6.734;2023-04-19T12:38:40;18.00;60.60
57652;DHT22;43480;53.116;6.734;2023-04-19T12:41:06;18.00;60.40
57652;DHT22;43480;53.116;6.734;2023-04-19T12:43:32;18.10;59.70
57652;DHT22;43480;53.116;6.734;2023-04-19T12:45:58;18.20;59.70
57652;DHT22;43480;53.116;6.734;2023-04-19T12:48:24;18.20;59.10
57652;DHT22;43480;53.116;6.734;2023-04-19T12:50:50;18.40;60.80
57652;DHT22;43480;53.116;6.734;2023-04-19T12:53:16;18.60;60.80
57652;DHT22;43480;53.116;6.734;2023-04-19T12:55:42;18.70;60.10
57652;DHT22;43480;53.116;6.734;2023-04-19T12:58:12;18.70;59.50
57652;DHT22;43480;53.116;6.734;2023-04-19T13:00:38;18.80;59.70
57652;DHT22;43480;53.116;6.734;2023-04-19T13:03:03;18.80;58.70
57652;DHT22;43480;53.116;6.734;2023-04-19T13:05:29;18.70;59.10
57652;DHT22;43480;53.116;6.734;2023-04-19T13:07:55;18.70;59.20
57652;DHT22;43480;53.116;6.734;2023-04-19T13:10:20;18.70;59.20
57652;DHT22;43480;53.116;6.734;2023-04-19T13:12:46;18.80;59.60
57652;DHT22;43480;53.116;6.734;2023-04-19T13:15:12;19.10;59.30
57652;DHT22;43480;53.116;6.734;2023-04-19T13:17:37;18.80;57.70
57652;DHT22;43480;53.116;6.734;2023-04-19T13:20:04;18.60;57.10
57652;DHT22;43480;53.116;6.734;2023-04-19T13:22:31;18.60;57.30
57652;DHT22;43480;53.116;6.734;2023-04-19T13:24:57;18.60;57.80
57652;DHT22;43480;53.116;6.734;2023-04-19T13:27:22;18.70;57.90
57652;DHT22;43480;53.116;6.734;2023-04-19T13:29:48;18.80;58.20
57652;DHT22;43480;53.116;6.734;2023-04-19T13:32:14;18.80;57.60
57652;DHT22;43480;53.116;6.734;2023-04-19T13:34:39;18.80;57.20
57652;DHT22;43480;53.116;6.734;2023-04-19T13:37:06;18.70;57.10
57652;DHT22;43480;53.116;6.734;2023-04-19T13:39:32;18.90;57.30
57652;DHT22;43480;53.116;6.734;2023-04-19T13:41:58;19.00;57.30
57652;DHT22;43480;53.116;6.734;2023-04-19T13:44:24;18.90;56.10
57652;DHT22;43480;53.116;6.734;2023-04-19T13:46:50;18.90;56.10
57652;DHT22;43480;53.116;6.734;2023-04-19T13:49:19;19.00;57.20
57652;DHT22;43480;53.116;6.734;2023-04-19T13:51:45;19.10;56.70
57652;DHT22;43480;53.116;6.734;2023-04-19T13:54:11;19.20;56.90
57652;DHT22;43480;53.116;6.734;2023-04-19T13:56:36;19.30;56.00
57652;DHT22;43480;53.116;6.734;2023-04-19T13:59:02;19.40;55.90
57652;DHT22;43480;53.116;6.734;2023-04-19T14:01:27;19.50;55.60
57652;DHT22;43480;53.116;6.734;2023-04-19T14:03:53;19.50;55.40
57652;DHT22;43480;53.116;6.734;2023-04-19T14:06:19;19.60;55.20
57652;DHT22;43480;53.116;6.734;2023-04-19T14:08:44;19.80;55.70
57652;DHT22;43480;53.116;6.734;2023-04-19T14:11:10;19.70;55.50
57652;DHT22;43480;53.116;6.734;2023-04-19T14:13:36;19.90;56.30
57652;DHT22;43480;53.116;6.734;2023-04-19T14:16:03;19.90;54.30
57652;DHT22;43480;53.116;6.734;2023-04-19T14:18:28;20.10;54.90
57652;DHT22;43480;53.116;6.734;2023-04-19T14:20:54;20.20;54.70
57652;DHT22;43480;53.116;6.734;2023-04-19T14:23:20;20.00;55.50
57652;DHT22;43480;53.116;6.734;2023-04-19T14:25:46;20.00;55.50
57652;DHT22;43480;53.116;6.734;2023-04-19T14:28:11;19.60;55.60
57652;DHT22;43480;53.116;6.734;2023-04-19T14:30:38;18.90;54.40
57652;DHT22;43480;53.116;6.734;2023-04-19T14:33:03;18.70;55.50
57652;DHT22;43480;53.116;6.734;2023-04-19T14:35:29;18.70;56.00
57652;DHT22;43480;53.116;6.734;2023-04-19T14:37:55;18.90;56.80
57652;DHT22;43480;53.116;6.734;2023-04-19T14:40:21;18.80;56.40
57652;DHT22;43480;53.116;6.734;2023-04-19T14:42:47;18.70;56.70
57652;DHT22;43480;53.116;6.734;2023-04-19T14:45:13;18.90;56.10
57652;DHT22;43480;53.116;6.734;2023-04-19T14:47:38;19.30;56.60
57652;DHT22;43480;53.116;6.734;2023-04-19T14:50:04;19.60;56.10
57652;DHT22;43480;53.116;6.734;2023-04-19T14:52:31;19.90;55.60
57652;DHT22;43480;53.116;6.734;2023-04-19T14:54:56;20.00;55.50
57652;DHT22;43480;53.116;6.734;2023-04-19T14:57:22;19.50;54.50
57652;DHT22;43480;53.116;6.734;2023-04-19T14:59:48;19.30;55.60
57652;DHT22;43480;53.116;6.734;2023-04-19T15:02:14;19.40;56.20
57652;DHT22;43480;53.116;6.734;2023-04-19T15:04:40;19.20;55.40
57652;DHT22;43480;53.116;6.734;2023-04-19T15:07:06;19.00;55.60
57652;DHT22;43480;53.116;6.734;2023-04-19T15:09:31;19.00;55.20
57652;DHT22;43480;53.116;6.734;2023-04-19T15:11:57;19.20;55.10
57652;DHT22;43480;53.116;6.734;2023-04-19T15:14:22;19.40;54.50
57652;DHT22;43480;53.116;6.734;2023-04-19T15:16:48;19.80;54.70
57652;DHT22;43480;53.116;6.734;2023-04-19T15:19:14;20.20;54.10
57652;DHT22;43480;53.116;6.734;2023-04-19T15:21:40;20.30;53.80
57652;DHT22;43480;53.116;6.734;2023-04-19T15:24:05;20.50;53.20
57652;DHT22;43480;53.116;6.734;2023-04-19T15:26:33;20.80;53.00
57652;DHT22;43480;53.116;6.734;2023-04-19T15:28:59;21.00;52.40
57652;DHT22;43480;53.116;6.734;2023-04-19T15:31:25;21.00;52.00
57652;DHT22;43480;53.116;6.734;2023-04-19T15:33:51;21.00;51.90
57652;DHT22;43480;53.116;6.734;2023-04-19T15:36:17;21.10;51.70
57652;DHT22;43480;53.116;6.734;2023-04-19T15:38:42;21.30;51.20
57652;DHT22;43480;53.116;6.734;2023-04-19T15:41:08;21.60;51.30
57652;DHT22;43480;53.116;6.734;2023-04-19T15:43:34;21.80;50.40
57652;DHT22;43480;53.116;6.734;2023-04-19T15:45:59;21.80;49.30
57652;DHT22;43480;53.116;6.734;2023-04-19T15:48:25;21.60;49.20
57652;DHT22;43480;53.116;6.734;2023-04-19T15:50:51;21.70;49.80